Genk, Belgium
Current Conditions -  °F | °C
As of 3:25 PM on Saturday 20 Dec 2014 (Local Time) from EHBK Reporting Station
Broken Clouds Broken Clouds  
Wind Chill: 39°   Ceiling: 3000
Heat Index: 45°   Visibility: 6mi
Dew Point: 37°   Wind: 12mph
Humidity: 76%   Direction: 260°W
Pressure: 30.15"   Gusts: NA
Location:  50.97°N, 5.5°E
Report Text: EHBK 201425Z AUTO 26010KT 200V310 9999 FEW023 SCT027 BKN03007/03 Q1021 NOSIG
Loading
Personal Weather Stations






























Interactive Weather Map New forecast layout! Learn more

10-Day Weather Forecast

Advertisements
Track Severe Weather on mobile